Quick Links (Output Below):   Max & Min Temps   /   Climate Reports   /   Zone Forecasts
River Forecasts   /   Forestry Forecasts   /   Aviation Forecasts   /   Radars   /   Features

Terminal Aerodrome Forecast (Highfill)

Pick a Site:
Arkadelphia | El Dorado | Fayetteville | Fort Smith | Harrison | Highfill | Hot Springs | Jonesboro
Little Rock | Monticello | Mountain Home | Pine Bluff | Texarkana
 Forecast 

KXNA 291128Z 2912/3012 18005KT P6SM VCTS BKN100CB
      TEMPO 2912/2914 4SM -TSRA BKN025CB
     FM291400 17006KT P6SM OVC050
      TEMPO 2914/2918 P6SM -TSRA BKN025CB
     FM292200 20005KT 4SM -TSRA BR OVC025CB
     FM300000 20005KT 4SM -RA BR OVC025
      TEMPO 3000/3002 2SM -TSRA BKN015CB
     FM300200 VRB04KT 4SM -RA BR OVC015=


 Latest METARs (Observations) 
How to Decode METARs
13Z KXNA 291253Z 17005KT 10SM -RA BKN033 OVC060 21/19 A3004 RMK AO2
         LTG DSNT E RAB45 SLP159 P0000 T02110189
         
12Z KXNA 291153Z 00000KT 10SM FEW032 BKN100 20/18 A3002 RMK AO2 SLP154
         70102 T02000183 10206 20183 53018
         
11Z KXNA 291053Z 20005KT 10SM OVC023 20/18 A3000 RMK AO2 LTG DSNT W
         SLP147 T02000178
         
10Z KXNA 290953Z AUTO 18007KT 10SM BKN049 OVC060 21/18 A2998 RMK AO2
         LTG DSNT W SLP139 T02060178
         
09Z KXNA 290853Z AUTO 18004KT 10SM FEW050 18/17 A2997 RMK AO2 LTG DSNT
         W SLP138 T01830167 56015
         
08Z KXNA 290753Z AUTO 11003KT 10SM SCT047 SCT055 19/17 A2999 RMK AO2
         SLP143 T01890167
         
07Z KXNA 290653Z AUTO 13005KT 10SM BKN050 19/17 A2999 RMK AO2 SLP145
         T01940172
         
06Z KXNA 290553Z AUTO 00000KT 10SM FEW050 BKN080 19/17 A3002 RMK AO2
         SLP154 T01890172 10239 20189 402440161 58001
         
05Z KXNA 290453Z AUTO 09003KT 10SM SCT033 19/18 A3005 RMK AO2 SLP164
         T01940178
         
03Z KXNA 290253Z 16003KT 10SM BKN033 20/18 A3002 RMK AO2 SLP154
         T02000183 53009
         
***** Today's Observations (Above) *****


Back to Main Page
http://www.srh.noaa.gov/lzk/qfcst.php

USA.gov is the U.S. government's official web portal to all federal, state and local government web resources and services.